AirNav   Everest Fuels
 
 1175 users online  

05FD Aventura Heliport
North Miami Beach, Florida, USA

GOING TO NORTH MIAMI BEACH?


FAA INFORMATION EFFECTIVE 13 AUGUST 2020

Location

FAA Identifier: 05FD
Lat/Long: 25-57-39.3310N 080-08-21.1630W
25-57.655517N 080-08.352717W
25.9609253,-80.1392119
(estimated)
Elevation: 6 ft. / 2 m (estimated)
Variation: 03W (1985)
From city: 3 miles N of NORTH MIAMI BEACH, FL
Time zone: UTC -4 (UTC -5 during Standard Time)
Zip code: 33180

Heliport Operations

Heliport use: Private use. Permission required prior to landing
Activation date: 06/1991
Control tower: no
ARTCC: MIAMI CENTER
FSS: MIAMI FLIGHT SERVICE STATION
Attendance: 0800-1600
Segmented circle: no
Lights: FOR POLE & LANDSCAPE LIGHTING CALL 305-933-6911.
Landing fee: yes

Heliport Communications

WX ASOS at HWO (6 nm NW): PHONE 954-983-5904
WX ASOS at FLL (7 nm N): PHONE 954-359-7857
WX ASOS at OPF (8 nm SW): 125.9 (305-681-4063)
WX ASOS at MIA (13 nm SW): 119.15 (305-870-0235)
WX ASOS at FXE (14 nm N): PHONE 954-772-2537
WX ASOS at PMP (17 nm N): 120.55 (954-783-3720)

Nearby radio navigation aids

VOR radial/distance  VOR name  Freq  Var
FLLr174/6.9FORT LAUDERDALE VOR/DME114.4006W
VKZr008/12.6VIRGINIA KEY VOR/DME117.1004W
DHPr054/14.9DOLPHIN VORTAC113.9004W

Heliport Services

Runway Information

Helipad H1

Dimensions: 95 x 95 ft. / 29 x 29 m
Surface: turf
Runway edge lights: non-standard
POLE AND LANDSCAPE LIGHTING.
Traffic pattern: leftleft

Heliport Ownership and Management from official FAA records

Ownership: Privately-owned
Owner: DON SOFFER
19495 BISCAYNE BLVD SUITE 900
NORTH MIAMI BEACH, FL 33180
Phone 305-937-6200
Manager: TURNBERRY ISLE RESORT
19999 W. COUNTRY CLUB DRIVE
AVENTURA, FL 33180
Phone 305-932-6200

Additional Remarks

FOR CD CTC MIAMI APCH AT 305-869-5432.

Instrument Procedures

There are no published instrument procedures at 05FD.

Some nearby airports with instrument procedures:

KHWO - North Perry Airport (6 nm NW)
KFLL - Fort Lauderdale/Hollywood International Airport (7 nm N)
KOPF - Miami-Opa Locka Executive Airport (8 nm SW)
KMIA - Miami International Airport (13 nm SW)
KFXE - Fort Lauderdale Executive Airport (14 nm N)
KPMP - Pompano Beach Airpark (17 nm N)
 
Loc | Ops | Rwys | IFR | FBO | Links
Com | Nav | Svcs | Stats | Notes


 
Area around 05FD (Aventura Heliport)
 
Road maps at: MapQuest Bing Google
 
Aerial photo
No photo
 
Sectional chart

 
Airport distance calculator
Flying to Aventura Heliport? Find the distance to fly.

From to 05FD

Sunrise and sunset
Times for 14-Aug-2020
 Local
(UTC-4)
 Zulu
(UTC)
Morning civil twilight06:3010:30
Sunrise06:5410:54
Sunset19:5623:56
Evening civil twilight20:2000:20

Current date and time
Zulu (UTC)  14-Aug-2020 22:42:50
Local (UTC-4)  14-Aug-2020 18:42:50
 
METAR
KHWO 
6nm NW 
142153Z 14010KT 10SM CLR 32/23 A2996 RMK AO2 SLP144 T03220233
KFLL 
6nm N 
142153Z 14008KT 10SM FEW028 FEW250 32/24 A2994 RMK AO2 SLP139 T03170239
KOPF 
8nm W 
142153Z 14009KT 10SM FEW037 31/23 A2995 RMK AO2 SLP143 T03110228
KMIA 
14nm SW 
142153Z 12007KT 10SM FEW031 SCT250 31/24 A2995 RMK AO2 SLP141 T03110239
KFXE 
15nm N 
142153Z 13008KT 10SM CLR 32/24 A2995 RMK AO2 SLP143 T03170239
KPMP 
17nm N 
142153Z 11007KT 080V150 10SM FEW028 A2995 RMK AO2 SLP144 $
TAF
KFLL 
6nm N 
142107Z 1421/1524 13010KT P6SM FEW029 SCT250 FM150200 VRB03KT P6SM SKC FM151300 14010KT P6SM SCT035
KOPF 
8nm W 
142107Z 1421/1518 12008KT P6SM SKC FM150100 VRB03KT P6SM SKC FM151400 14008KT P6SM SCT035
KMIA 
14nm SW 
142107Z 1421/1524 13010KT P6SM FEW035 FEW250 FM150100 VRB03KT P6SM SKC FM151400 14010KT P6SM SCT035
KFXE 
15nm N 
142107Z 1421/1518 13010KT P6SM SKC FM150100 VRB03KT P6SM SKC FM151400 13008KT P6SM SCT035
NOTAMs
Click for the latest NOTAMs
NOTAMs are issued by the DoD/FAA and will open in a separate window not controlled by AirNav.

 

 
 

Would you like to see your business listed on this page?

 If your business provides an interesting product or service to pilots, flight crews, aircraft, or users of the Aventura Heliport, you should consider listing it here.  To start the listing process, click on the button below
 
Add a business
 

Other Pages about Aventura Heliport

Update a link
 
Copyright © AirNav, LLC. All rights reserved. Privacy Policy  Contact